createdAt,value
2022-09-23T11:01:47.680Z,18.00
2022-09-23T11:03:38.693Z,15.60
2022-09-23T11:05:15.273Z,19.40
2022-09-23T11:06:49.801Z,21.80
2022-09-23T11:08:38.161Z,20.20
2022-09-23T11:10:23.243Z,21.20
2022-09-23T11:12:10.595Z,19.00
2022-09-23T11:14:01.075Z,17.20
2022-09-23T11:15:35.969Z,16.60
2022-09-23T11:17:19.447Z,17.00
2022-09-23T11:19:34.176Z,16.80
2022-09-23T11:21:26.522Z,22.20
2022-09-23T11:23:20.251Z,22.80
2022-09-23T11:25:05.105Z,22.20
2022-09-23T11:26:53.122Z,16.80
2022-09-23T11:28:43.853Z,17.40
2022-09-23T11:30:17.176Z,44.80
2022-09-23T11:32:14.308Z,435.20
2022-09-23T11:33:57.688Z,258.75
2022-09-23T11:35:39.105Z,210.67
2022-09-23T11:37:22.227Z,165.00
2022-09-23T11:38:54.759Z,140.00
2022-09-23T11:40:36.567Z,134.25
2022-09-23T11:42:13.919Z,135.25
2022-09-23T11:43:51.449Z,147.50
2022-09-23T11:45:26.892Z,128.00
2022-09-23T11:47:02.002Z,138.75
2022-09-23T11:48:48.011Z,129.25
2022-09-23T11:50:25.964Z,122.25
2022-09-23T11:52:12.916Z,139.50
2022-09-23T11:54:20.683Z,138.75
2022-09-23T11:56:06.745Z,157.50
2022-09-23T11:57:57.451Z,164.25
2022-09-23T11:59:46.280Z,169.25
2022-09-23T12:01:34.893Z,164.75
2022-09-23T12:03:23.243Z,181.50
2022-09-23T12:05:06.758Z,157.50
2022-09-23T12:06:46.543Z,168.25
2022-09-23T12:08:25.580Z,178.00
2022-09-23T12:10:04.068Z,183.75
2022-09-23T12:11:49.088Z,187.25
2022-09-23T12:13:43.585Z,213.00
2022-09-23T12:15:22.363Z,210.00
2022-09-23T12:17:09.241Z,199.67
2022-09-23T12:18:42.194Z,202.33
2022-09-23T12:20:13.757Z,212.67
2022-09-23T12:21:56.668Z,196.33
2022-09-23T12:23:28.279Z,200.67
2022-09-23T12:25:26.642Z,198.67
2022-09-23T12:27:00.367Z,213.67
2022-09-23T12:28:37.709Z,193.25
2022-09-23T12:30:16.894Z,187.00
2022-09-23T12:31:49.790Z,181.00
2022-09-23T12:33:24.877Z,198.75
2022-09-23T12:34:56.636Z,193.75
2022-09-23T12:36:34.792Z,204.67
2022-09-23T12:38:21.670Z,192.75
2022-09-23T12:39:53.355Z,184.50
2022-09-23T12:41:38.641Z,199.25
2022-09-23T12:43:36.450Z,180.00
2022-09-23T12:45:28.159Z,189.75
2022-09-23T12:47:15.126Z,196.50
2022-09-23T12:48:54.497Z,187.00
2022-09-23T12:50:51.100Z,185.00
2022-09-23T12:52:30.935Z,174.50
2022-09-23T12:54:05.538Z,177.00
2022-09-23T12:55:40.023Z,179.25
2022-09-23T12:57:11.787Z,171.50
2022-09-23T12:58:43.353Z,166.00
2022-09-23T13:00:22.760Z,147.25
2022-09-23T13:01:54.585Z,156.75
2022-09-23T13:03:44.658Z,161.00
2022-09-23T13:05:38.927Z,173.00
2022-09-23T13:07:10.560Z,169.75
2022-09-23T13:08:42.213Z,150.50
2022-09-23T13:10:28.135Z,156.50
2022-09-23T13:12:01.467Z,156.00
2022-09-23T13:13:34.991Z,165.25
2022-09-23T13:15:33.170Z,157.50
2022-09-23T13:17:04.878Z,161.00
2022-09-23T13:19:01.353Z,146.00
2022-09-23T13:20:38.320Z,154.00
2022-09-23T13:22:11.068Z,158.25
2022-09-23T13:23:50.554Z,158.50
2022-09-23T13:25:23.368Z,149.75
2022-09-23T13:26:57.391Z,154.25
2022-09-23T13:28:54.562Z,153.75
2022-09-23T13:30:26.941Z,145.75
2022-09-23T13:31:58.895Z,168.50
2022-09-23T13:33:50.596Z,150.50
2022-09-23T13:35:27.259Z,141.50
2022-09-23T13:36:58.939Z,145.25
2022-09-23T13:38:34.046Z,145.00
2022-09-23T13:40:29.870Z,150.75
2022-09-23T13:42:03.065Z,147.25
2022-09-23T13:43:41.439Z,147.50
2022-09-23T13:45:17.951Z,168.25
2022-09-23T13:46:51.770Z,213.33
2022-09-23T13:48:23.930Z,214.00
2022-09-23T13:49:55.733Z,210.33
2022-09-23T13:51:34.047Z,200.33
2022-09-23T13:53:10.836Z,188.75
2022-09-23T13:54:49.669Z,148.75
2022-09-23T13:56:21.957Z,134.00
2022-09-23T13:58:04.688Z,129.75
2022-09-23T13:59:41.870Z,141.00
2022-09-23T14:01:34.170Z,141.00
2022-09-23T14:03:36.812Z,124.75
2022-09-23T14:05:13.320Z,118.75
2022-09-23T14:06:45.071Z,118.50
2022-09-23T14:08:16.814Z,121.80
2022-09-23T14:09:49.924Z,118.50
2022-09-23T14:11:35.507Z,109.00
2022-09-23T14:13:07.251Z,118.40
2022-09-23T14:14:40.145Z,128.00
2022-09-23T14:16:15.049Z,125.00
2022-09-23T14:17:48.001Z,127.25
2022-09-23T14:19:23.726Z,129.50
2022-09-23T14:20:55.526Z,122.75
2022-09-23T14:22:28.414Z,110.40
2022-09-23T14:24:11.056Z,126.60
2022-09-23T14:25:44.387Z,125.25
2022-09-23T14:27:18.176Z,131.00
2022-09-23T14:28:49.944Z,130.25
2022-09-23T14:30:21.640Z,123.80
2022-09-23T14:32:00.244Z,117.50
2022-09-23T14:33:32.824Z,129.75
2022-09-23T14:35:06.706Z,120.75
2022-09-23T14:36:56.940Z,128.50
2022-09-23T14:38:47.342Z,120.00
2022-09-23T14:40:20.738Z,128.50
2022-09-23T14:41:52.423Z,124.50
2022-09-23T14:43:24.886Z,122.50
2022-09-23T14:44:56.515Z,118.00
2022-09-23T14:46:30.257Z,122.00
2022-09-23T14:48:06.524Z,134.50
2022-09-23T14:49:58.151Z,126.00
2022-09-23T14:51:31.699Z,131.75
2022-09-23T14:53:04.285Z,129.75
2022-09-23T14:54:38.841Z,135.50
2022-09-23T14:56:15.861Z,136.00
2022-09-23T14:57:47.558Z,140.00
2022-09-23T14:59:52.244Z,137.75
2022-09-23T15:01:39.366Z,123.75
2022-09-23T15:03:14.712Z,145.25
2022-09-23T15:04:46.384Z,126.50
2022-09-23T15:06:18.185Z,129.00
2022-09-23T15:07:51.634Z,138.25
2022-09-23T15:09:29.881Z,135.00
2022-09-23T15:11:07.886Z,129.00
2022-09-23T15:12:40.121Z,120.25
2022-09-23T15:14:36.138Z,137.75
2022-09-23T15:16:04.802Z,139.00
2022-09-23T15:17:36.471Z,142.75
2022-09-23T15:19:14.871Z,134.50
2022-09-23T15:20:52.294Z,132.50
2022-09-23T15:22:26.967Z,123.50
2022-09-23T15:23:58.814Z,127.75
2022-09-23T15:25:32.031Z,111.00
2022-09-23T15:27:10.514Z,121.25
2022-09-23T15:28:43.713Z,123.75
2022-09-23T15:30:17.353Z,128.75
2022-09-23T15:31:49.110Z,119.25
2022-09-23T15:33:26.927Z,119.00
2022-09-23T15:34:58.585Z,196.25
2022-09-23T15:36:30.306Z,199.33
2022-09-23T15:38:03.298Z,207.00
2022-09-23T15:39:36.362Z,206.00
2022-09-23T15:41:08.485Z,184.50
2022-09-23T15:42:40.744Z,178.50
2022-09-23T15:44:17.076Z,160.25
2022-09-23T15:45:51.946Z,111.80
2022-09-23T15:47:23.619Z,100.20
2022-09-23T15:49:03.007Z,94.75
2022-09-23T15:50:35.905Z,95.50
2022-09-23T15:52:10.587Z,102.00
2022-09-23T15:53:42.619Z,90.00
2022-09-23T15:55:18.726Z,106.20
2022-09-23T15:56:51.912Z,108.50
2022-09-23T15:58:25.345Z,105.25
2022-09-23T15:59:58.661Z,97.75
2022-09-23T16:01:31.899Z,102.40
2022-09-23T16:03:06.771Z,102.50
2022-09-23T16:04:38.933Z,99.25
2022-09-23T16:06:12.311Z,91.00
2022-09-23T16:07:47.534Z,96.25
2022-09-23T16:09:20.879Z,102.00
2022-09-23T16:10:55.179Z,102.25
2022-09-23T16:12:27.145Z,93.75
2022-09-23T16:14:00.536Z,92.00
2022-09-23T16:15:32.609Z,99.75
2022-09-23T16:17:05.314Z,92.25
2022-09-23T16:18:38.242Z,86.00
2022-09-23T16:20:10.653Z,87.75
2022-09-23T16:21:42.376Z,88.75
2022-09-23T16:23:18.250Z,82.50
2022-09-23T16:24:49.908Z,86.75
2022-09-23T16:26:26.083Z,89.50
2022-09-23T16:27:58.187Z,89.75
2022-09-23T16:29:30.044Z,79.00
2022-09-23T16:31:01.719Z,74.75
2022-09-23T16:32:33.344Z,81.75
2022-09-23T16:34:05.168Z,79.50
2022-09-23T16:35:36.794Z,82.00
2022-09-23T16:37:12.246Z,80.75
2022-09-23T16:38:43.956Z,79.00
2022-09-23T16:40:18.262Z,79.25
2022-09-23T16:41:49.989Z,78.00
2022-09-23T16:43:22.181Z,73.50
2022-09-23T16:44:53.855Z,75.25
2022-09-23T16:46:25.661Z,76.25
2022-09-23T16:47:57.297Z,75.75
2022-09-23T16:49:29.011Z,72.75
2022-09-23T16:51:04.817Z,65.75
2022-09-23T16:52:36.497Z,76.75
2022-09-23T16:54:10.372Z,65.75
2022-09-23T16:55:42.151Z,73.25
2022-09-23T16:57:14.018Z,67.75
2022-09-23T16:58:45.799Z,66.00
2022-09-23T17:00:36.316Z,71.25
2022-09-23T17:02:28.144Z,72.25
2022-09-23T17:03:59.787Z,69.00
2022-09-23T17:05:31.450Z,70.00
2022-09-23T17:07:03.169Z,69.50
2022-09-23T17:08:34.853Z,66.00
2022-09-23T17:10:07.102Z,66.75
2022-09-23T17:11:38.796Z,64.50
2022-09-23T17:13:11.550Z,62.75
2022-09-23T17:14:43.759Z,62.75
2022-09-23T17:16:29.268Z,57.25
2022-09-23T17:18:01.195Z,64.00
2022-09-23T17:19:34.108Z,65.50
2022-09-23T17:21:06.901Z,61.25
2022-09-23T17:22:38.559Z,55.75
2022-09-23T17:24:10.217Z,59.50
2022-09-23T17:25:47.884Z,53.75
2022-09-23T17:27:19.588Z,56.25
2022-09-23T17:28:51.772Z,57.75
2022-09-23T17:30:23.599Z,59.00
2022-09-23T17:31:56.005Z,54.75
2022-09-23T17:33:28.467Z,55.75
2022-09-23T17:35:04.484Z,58.00
2022-09-23T17:36:36.136Z,51.60
2022-09-23T17:38:07.770Z,53.20
2022-09-23T17:39:39.627Z,54.20
2022-09-23T17:41:11.934Z,54.40
2022-09-23T17:42:44.747Z,52.00
2022-09-23T17:44:17.704Z,52.80
2022-09-23T17:45:50.059Z,53.20
2022-09-23T17:47:24.419Z,53.20
2022-09-23T17:48:56.338Z,50.00
2022-09-23T17:50:28.173Z,49.60
2022-09-23T17:52:03.332Z,51.60
2022-09-23T17:53:37.245Z,50.80
2022-09-23T17:55:09.145Z,51.60
2022-09-23T17:56:41.293Z,46.00
2022-09-23T17:58:12.982Z,50.80
2022-09-23T17:59:44.612Z,54.00
2022-09-23T18:01:24.003Z,48.20
2022-09-23T18:02:55.753Z,48.60
2022-09-23T18:04:27.431Z,47.60
2022-09-23T18:06:13.525Z,46.60
2022-09-23T18:07:45.203Z,46.00
2022-09-23T18:09:17.163Z,47.40
2022-09-23T18:10:48.863Z,50.20
2022-09-23T18:12:20.586Z,47.40
2022-09-23T18:13:59.725Z,46.20
2022-09-23T18:15:31.347Z,47.40
2022-09-23T18:17:03.070Z,48.00
2022-09-23T18:18:34.798Z,46.40
2022-09-23T18:20:07.015Z,46.60
2022-09-23T18:21:40.759Z,47.20
2022-09-23T18:23:12.565Z,47.00
2022-09-23T18:24:44.479Z,44.80
2022-09-23T18:26:17.146Z,44.40
2022-09-23T18:27:49.039Z,46.80
2022-09-23T18:29:20.702Z,44.60
2022-09-23T18:30:54.214Z,47.60
2022-09-23T18:32:26.004Z,48.40
2022-09-23T18:33:58.172Z,46.40
2022-09-23T18:35:30.748Z,49.40
2022-09-23T18:37:02.474Z,46.40
2022-09-23T18:38:34.272Z,47.60
2022-09-23T18:40:08.510Z,41.20
2022-09-23T18:41:42.160Z,45.20
2022-09-23T18:43:18.337Z,45.80
2022-09-23T18:44:54.440Z,47.20
2022-09-23T18:46:29.439Z,45.40
2022-09-23T18:48:19.879Z,45.40
2022-09-23T18:50:10.161Z,45.00
2022-09-23T18:51:55.674Z,41.40
2022-09-23T18:53:27.592Z,40.20
2022-09-23T18:55:01.244Z,45.20
2022-09-23T18:56:39.849Z,44.20
2022-09-23T18:58:13.320Z,43.60
2022-09-23T18:59:47.310Z,44.20
2022-09-23T19:01:19.989Z,44.00
2022-09-23T19:02:52.401Z,42.00
2022-09-23T19:04:25.031Z,44.40
2022-09-23T19:06:01.758Z,42.00
2022-09-23T19:07:33.426Z,42.80
2022-09-23T19:09:05.602Z,42.60
2022-09-23T19:10:37.252Z,38.40
2022-09-23T19:12:09.064Z,44.80
2022-09-23T19:13:40.790Z,42.00
2022-09-23T19:15:12.948Z,42.20
2022-09-23T19:16:45.421Z,42.60
2022-09-23T19:18:19.764Z,43.20
2022-09-23T19:19:51.496Z,41.80
2022-09-23T19:21:23.400Z,43.40
2022-09-23T19:22:55.017Z,45.40
2022-09-23T19:24:27.663Z,44.60
2022-09-23T19:26:04.311Z,44.80
2022-09-23T19:27:36.042Z,41.60
2022-09-23T19:29:08.779Z,42.00
2022-09-23T19:30:40.535Z,43.60
2022-09-23T19:32:16.037Z,48.60
2022-09-23T19:33:56.860Z,57.40
2022-09-23T19:35:29.504Z,54.00
2022-09-23T19:37:04.594Z,56.20
2022-09-23T19:38:37.444Z,48.00
2022-09-23T19:40:09.592Z,50.60
2022-09-23T19:41:41.275Z,47.40
2022-09-23T19:43:13.115Z,47.00
2022-09-23T19:44:44.758Z,42.60
2022-09-23T19:46:16.524Z,44.80
2022-09-23T19:47:56.373Z,42.40
2022-09-23T19:49:28.577Z,46.00
2022-09-23T19:51:01.081Z,42.40
2022-09-23T19:52:32.750Z,46.00
2022-09-23T19:54:05.185Z,47.00
2022-09-23T19:55:37.131Z,50.60
2022-09-23T19:57:09.328Z,52.20
2022-09-23T19:58:42.279Z,53.40
2022-09-23T20:00:15.276Z,52.40
2022-09-23T20:01:48.077Z,57.75
2022-09-23T20:03:19.938Z,61.00
2022-09-23T20:04:51.599Z,63.00
2022-09-23T20:06:23.283Z,67.50
2022-09-23T20:07:55.626Z,81.75
2022-09-23T20:09:29.022Z,73.75
2022-09-23T20:11:11.158Z,81.00
2022-09-23T20:12:43.983Z,89.25
2022-09-23T20:14:15.725Z,97.50
2022-09-23T20:15:48.356Z,101.25
2022-09-23T20:17:20.769Z,101.50
2022-09-23T20:18:53.063Z,104.00
2022-09-23T20:20:24.774Z,115.20
2022-09-23T20:22:16.606Z,116.25
2022-09-23T20:23:48.260Z,122.20
2022-09-23T20:25:19.902Z,128.25
2022-09-23T20:27:09.772Z,129.25
2022-09-23T20:28:41.427Z,127.75
2022-09-23T20:30:13.197Z,133.25
2022-09-23T20:31:44.943Z,137.25
2022-09-23T20:33:16.738Z,143.75
2022-09-23T20:34:49.605Z,150.75
2022-09-23T20:36:21.807Z,139.50
2022-09-23T20:37:53.463Z,144.00
2022-09-23T20:39:25.112Z,159.25
2022-09-23T20:40:57.123Z,160.50
2022-09-23T20:42:28.764Z,149.50
2022-09-23T20:44:00.616Z,163.25
2022-09-23T20:45:32.351Z,158.50
2022-09-23T20:47:04.214Z,157.00
2022-09-23T20:48:35.896Z,173.00
2022-09-23T20:50:07.972Z,180.00
2022-09-23T20:51:39.843Z,177.50
2022-09-23T20:53:11.497Z,179.00
2022-09-23T20:54:43.220Z,181.75
2022-09-23T20:56:16.518Z,181.00
2022-09-23T20:57:48.701Z,175.50
2022-09-23T20:59:20.379Z,171.50
2022-09-23T21:00:52.081Z,187.25
2022-09-23T21:02:25.452Z,162.25
2022-09-23T21:03:57.195Z,173.75
2022-09-23T21:05:28.824Z,174.50
2022-09-23T21:07:01.406Z,172.75
2022-09-23T21:08:33.792Z,180.00
2022-09-23T21:10:07.387Z,173.25
2022-09-23T21:11:39.075Z,170.75
2022-09-23T21:13:10.704Z,166.75
2022-09-23T21:14:42.352Z,167.75
2022-09-23T21:16:16.001Z,163.50
2022-09-23T21:17:47.781Z,169.25
2022-09-23T21:19:19.830Z,167.75
2022-09-23T21:20:57.876Z,154.50
2022-09-23T21:22:29.550Z,153.50
2022-09-23T21:24:24.475Z,165.00
2022-09-23T21:25:59.836Z,158.75
2022-09-23T21:27:31.449Z,153.75
2022-09-23T21:29:03.183Z,156.00
2022-09-23T21:30:35.155Z,148.25
2022-09-23T21:32:06.806Z,152.00
2022-09-23T21:33:38.503Z,149.25
2022-09-23T21:35:10.128Z,148.75
2022-09-23T21:36:46.241Z,147.00
2022-09-23T21:38:17.912Z,131.25
2022-09-23T21:40:08.321Z,147.50
2022-09-23T21:41:40.222Z,141.50
2022-09-23T21:43:12.359Z,147.25
2022-09-23T21:44:44.037Z,137.00
2022-09-23T21:46:20.136Z,143.75
2022-09-23T21:47:52.046Z,144.50
2022-09-23T21:49:23.690Z,150.00
2022-09-23T21:50:59.464Z,150.25
2022-09-23T21:52:31.103Z,151.75
2022-09-23T21:54:02.759Z,155.25
2022-09-23T21:55:34.379Z,140.75
2022-09-23T21:57:06.259Z,146.00
2022-09-23T21:58:38.527Z,140.75
2022-09-23T22:00:10.668Z,150.75
2022-09-23T22:01:44.920Z,137.25
2022-09-23T22:03:16.911Z,145.50
2022-09-23T22:04:48.552Z,141.75
2022-09-23T22:06:21.939Z,134.50
2022-09-23T22:07:54.274Z,140.00
2022-09-23T22:09:26.047Z,138.00
2022-09-23T22:10:57.750Z,139.00
2022-09-23T22:12:29.372Z,140.00
2022-09-23T22:14:02.530Z,131.50
2022-09-23T22:15:37.481Z,129.50
2022-09-23T22:17:10.814Z,136.50
2022-09-23T22:18:42.485Z,134.50
2022-09-23T22:20:15.717Z,139.50
2022-09-23T22:21:47.381Z,139.25
2022-09-23T22:23:19.698Z,125.75
2022-09-23T22:24:51.959Z,118.50
2022-09-23T22:26:24.341Z,132.50
2022-09-23T22:28:14.639Z,125.00
2022-09-23T22:30:15.346Z,125.40
2022-09-23T22:32:05.754Z,115.00
2022-09-23T22:33:37.473Z,115.20
